sensor_id;sensor_type;location;lat;lon;timestamp;P1;durP1;ratioP1;P2;durP2;ratioP2
9958;SDS011;5019;48.012;7.812;2023-04-25T00:01:31;1.47;;;1.37;;
9958;SDS011;5019;48.012;7.812;2023-04-25T00:03:58;1.73;;;1.63;;
9958;SDS011;5019;48.012;7.812;2023-04-25T00:06:26;4.00;;;1.93;;
9958;SDS011;5019;48.012;7.812;2023-04-25T00:08:52;2.17;;;2.07;;
9958;SDS011;5019;48.012;7.812;2023-04-25T00:11:19;3.40;;;3.10;;
9958;SDS011;5019;48.012;7.812;2023-04-25T00:13:45;1.80;;;1.50;;
9958;SDS011;5019;48.012;7.812;2023-04-25T00:16:11;1.90;;;1.43;;
9958;SDS011;5019;48.012;7.812;2023-04-25T00:18:39;1.70;;;1.60;;
9958;SDS011;5019;48.012;7.812;2023-04-25T00:21:05;1.83;;;1.47;;
9958;SDS011;5019;48.012;7.812;2023-04-25T00:23:31;2.00;;;1.90;;
9958;SDS011;5019;48.012;7.812;2023-04-25T00:25:57;3.67;;;1.50;;
9958;SDS011;5019;48.012;7.812;2023-04-25T00:28:23;1.30;;;1.23;;
9958;SDS011;5019;48.012;7.812;2023-04-25T00:30:49;5.70;;;1.93;;
9958;SDS011;5019;48.012;7.812;2023-04-25T00:33:15;1.77;;;1.53;;
9958;SDS011;5019;48.012;7.812;2023-04-25T00:35:41;7.67;;;2.43;;
9958;SDS011;5019;48.012;7.812;2023-04-25T00:38:07;1.77;;;1.67;;
9958;SDS011;5019;48.012;7.812;2023-04-25T00:40:33;2.20;;;2.00;;
9958;SDS011;5019;48.012;7.812;2023-04-25T00:42:59;4.23;;;3.40;;
9958;SDS011;5019;48.012;7.812;2023-04-25T00:45:28;1.53;;;1.43;;
9958;SDS011;5019;48.012;7.812;2023-04-25T00:47:55;1.87;;;1.70;;
9958;SDS011;5019;48.012;7.812;2023-04-25T00:50:21;2.50;;;1.40;;
9958;SDS011;5019;48.012;7.812;2023-04-25T00:52:47;3.63;;;2.00;;
9958;SDS011;5019;48.012;7.812;2023-04-25T00:55:13;4.33;;;1.60;;
9958;SDS011;5019;48.012;7.812;2023-04-25T00:57:40;2.20;;;2.00;;
9958;SDS011;5019;48.012;7.812;2023-04-25T01:00:07;2.80;;;1.70;;
9958;SDS011;5019;48.012;7.812;2023-04-25T01:02:34;2.17;;;1.97;;
9958;SDS011;5019;48.012;7.812;2023-04-25T01:05:01;2.33;;;2.20;;
9958;SDS011;5019;48.012;7.812;2023-04-25T01:07:27;2.03;;;1.80;;
9958;SDS011;5019;48.012;7.812;2023-04-25T01:09:53;4.67;;;1.87;;
9958;SDS011;5019;48.012;7.812;2023-04-25T01:12:19;4.10;;;2.37;;
9958;SDS011;5019;48.012;7.812;2023-04-25T01:14:46;2.53;;;1.97;;
9958;SDS011;5019;48.012;7.812;2023-04-25T01:17:12;2.80;;;1.77;;
9958;SDS011;5019;48.012;7.812;2023-04-25T01:19:38;2.17;;;1.90;;
9958;SDS011;5019;48.012;7.812;2023-04-25T01:22:04;2.50;;;1.70;;
9958;SDS011;5019;48.012;7.812;2023-04-25T01:24:31;3.37;;;3.07;;
9958;SDS011;5019;48.012;7.812;2023-04-25T01:26:58;2.83;;;2.13;;
9958;SDS011;5019;48.012;7.812;2023-04-25T01:29:24;2.07;;;1.97;;
9958;SDS011;5019;48.012;7.812;2023-04-25T01:31:51;3.77;;;2.10;;
9958;SDS011;5019;48.012;7.812;2023-04-25T01:34:17;2.80;;;2.33;;
9958;SDS011;5019;48.012;7.812;2023-04-25T01:36:43;1.63;;;1.53;;
9958;SDS011;5019;48.012;7.812;2023-04-25T01:39:09;2.17;;;1.97;;
9958;SDS011;5019;48.012;7.812;2023-04-25T01:41:36;7.33;;;3.10;;
9958;SDS011;5019;48.012;7.812;2023-04-25T01:44:02;2.40;;;1.93;;
9958;SDS011;5019;48.012;7.812;2023-04-25T01:46:28;1.80;;;1.70;;
9958;SDS011;5019;48.012;7.812;2023-04-25T01:48:54;5.57;;;2.40;;
9958;SDS011;5019;48.012;7.812;2023-04-25T01:51:20;2.93;;;2.07;;
9958;SDS011;5019;48.012;7.812;2023-04-25T01:53:46;1.83;;;1.73;;
9958;SDS011;5019;48.012;7.812;2023-04-25T01:56:12;3.87;;;2.93;;
9958;SDS011;5019;48.012;7.812;2023-04-25T01:58:38;1.90;;;1.80;;
9958;SDS011;5019;48.012;7.812;2023-04-25T02:01:04;3.37;;;2.60;;
9958;SDS011;5019;48.012;7.812;2023-04-25T02:03:31;3.57;;;1.97;;
9958;SDS011;5019;48.012;7.812;2023-04-25T02:05:57;8.27;;;2.17;;
9958;SDS011;5019;48.012;7.812;2023-04-25T02:08:23;6.40;;;1.93;;
9958;SDS011;5019;48.012;7.812;2023-04-25T02:10:50;2.83;;;2.17;;
9958;SDS011;5019;48.012;7.812;2023-04-25T02:13:16;1.87;;;1.73;;
9958;SDS011;5019;48.012;7.812;2023-04-25T02:15:42;3.83;;;2.10;;
9958;SDS011;5019;48.012;7.812;2023-04-25T02:18:08;4.70;;;2.10;;
9958;SDS011;5019;48.012;7.812;2023-04-25T02:20:35;6.23;;;3.20;;
9958;SDS011;5019;48.012;7.812;2023-04-25T02:23:02;3.77;;;2.40;;
9958;SDS011;5019;48.012;7.812;2023-04-25T02:25:28;2.23;;;2.03;;
9958;SDS011;5019;48.012;7.812;2023-04-25T02:27:54;3.47;;;2.47;;
9958;SDS011;5019;48.012;7.812;2023-04-25T02:30:20;2.60;;;2.23;;
9958;SDS011;5019;48.012;7.812;2023-04-25T02:32:46;3.47;;;2.27;;
9958;SDS011;5019;48.012;7.812;2023-04-25T02:35:12;2.90;;;2.03;;
9958;SDS011;5019;48.012;7.812;2023-04-25T02:37:38;2.17;;;1.97;;
9958;SDS011;5019;48.012;7.812;2023-04-25T02:40:04;2.90;;;2.07;;
9958;SDS011;5019;48.012;7.812;2023-04-25T02:42:31;5.90;;;1.70;;
9958;SDS011;5019;48.012;7.812;2023-04-25T02:44:57;3.70;;;2.00;;
9958;SDS011;5019;48.012;7.812;2023-04-25T02:47:23;4.97;;;2.30;;
9958;SDS011;5019;48.012;7.812;2023-04-25T02:49:49;1.93;;;1.73;;
9958;SDS011;5019;48.012;7.812;2023-04-25T02:52:15;2.20;;;1.87;;
9958;SDS011;5019;48.012;7.812;2023-04-25T02:54:41;2.60;;;1.90;;
9958;SDS011;5019;48.012;7.812;2023-04-25T02:57:07;4.67;;;1.93;;
9958;SDS011;5019;48.012;7.812;2023-04-25T02:59:33;1.90;;;1.67;;
9958;SDS011;5019;48.012;7.812;2023-04-25T03:02:00;2.53;;;2.30;;
9958;SDS011;5019;48.012;7.812;2023-04-25T03:04:26;2.17;;;2.03;;
9958;SDS011;5019;48.012;7.812;2023-04-25T03:06:52;2.27;;;1.97;;
9958;SDS011;5019;48.012;7.812;2023-04-25T03:09:19;2.00;;;1.80;;
9958;SDS011;5019;48.012;7.812;2023-04-25T03:11:45;3.53;;;2.50;;
9958;SDS011;5019;48.012;7.812;2023-04-25T03:14:11;2.13;;;2.00;;
9958;SDS011;5019;48.012;7.812;2023-04-25T03:16:37;9.43;;;1.57;;
9958;SDS011;5019;48.012;7.812;2023-04-25T03:19:03;4.57;;;2.07;;
9958;SDS011;5019;48.012;7.812;2023-04-25T03:21:30;1.70;;;1.60;;
9958;SDS011;5019;48.012;7.812;2023-04-25T03:23:57;2.10;;;1.90;;
9958;SDS011;5019;48.012;7.812;2023-04-25T03:26:23;2.03;;;1.67;;
9958;SDS011;5019;48.012;7.812;2023-04-25T03:28:49;1.30;;;1.20;;
9958;SDS011;5019;48.012;7.812;2023-04-25T03:31:15;5.60;;;2.03;;
9958;SDS011;5019;48.012;7.812;2023-04-25T03:33:41;2.80;;;2.10;;
9958;SDS011;5019;48.012;7.812;2023-04-25T03:36:07;8.73;;;1.87;;
9958;SDS011;5019;48.012;7.812;2023-04-25T03:38:33;1.70;;;1.60;;
9958;SDS011;5019;48.012;7.812;2023-04-25T03:40:59;3.00;;;1.90;;
9958;SDS011;5019;48.012;7.812;2023-04-25T03:43:25;2.10;;;1.70;;
9958;SDS011;5019;48.012;7.812;2023-04-25T03:45:51;10.77;;;2.70;;
9958;SDS011;5019;48.012;7.812;2023-04-25T03:48:17;1.53;;;1.43;;
9958;SDS011;5019;48.012;7.812;2023-04-25T03:50:44;1.80;;;1.40;;
9958;SDS011;5019;48.012;7.812;2023-04-25T03:53:10;2.53;;;1.70;;
9958;SDS011;5019;48.012;7.812;2023-04-25T03:55:36;2.93;;;2.03;;
9958;SDS011;5019;48.012;7.812;2023-04-25T03:58:02;3.40;;;1.73;;
9958;SDS011;5019;48.012;7.812;2023-04-25T04:00:28;3.87;;;1.73;;
9958;SDS011;5019;48.012;7.812;2023-04-25T04:02:54;1.70;;;1.60;;
9958;SDS011;5019;48.012;7.812;2023-04-25T04:05:20;5.27;;;1.63;;
9958;SDS011;5019;48.012;7.812;2023-04-25T04:07:47;9.93;;;1.73;;
9958;SDS011;5019;48.012;7.812;2023-04-25T04:10:13;2.50;;;2.17;;
9958;SDS011;5019;48.012;7.812;2023-04-25T04:12:39;2.50;;;1.50;;
9958;SDS011;5019;48.012;7.812;2023-04-25T04:15:05;2.33;;;1.90;;
9958;SDS011;5019;48.012;7.812;2023-04-25T04:17:31;7.17;;;2.03;;
9958;SDS011;5019;48.012;7.812;2023-04-25T04:19:57;2.10;;;2.00;;
9958;SDS011;5019;48.012;7.812;2023-04-25T04:22:24;8.03;;;2.00;;
9958;SDS011;5019;48.012;7.812;2023-04-25T04:24:50;15.50;;;2.37;;
9958;SDS011;5019;48.012;7.812;2023-04-25T04:27:19;2.50;;;2.07;;
9958;SDS011;5019;48.012;7.812;2023-04-25T04:29:46;3.83;;;1.87;;
9958;SDS011;5019;48.012;7.812;2023-04-25T04:32:13;3.00;;;2.70;;
9958;SDS011;5019;48.012;7.812;2023-04-25T04:34:39;5.23;;;1.80;;
9958;SDS011;5019;48.012;7.812;2023-04-25T04:37:06;2.07;;;1.60;;
9958;SDS011;5019;48.012;7.812;2023-04-25T04:39:32;2.43;;;2.23;;
9958;SDS011;5019;48.012;7.812;2023-04-25T04:41:58;2.47;;;2.17;;
9958;SDS011;5019;48.012;7.812;2023-04-25T04:44:26;3.57;;;2.93;;
9958;SDS011;5019;48.012;7.812;2023-04-25T04:46:53;2.10;;;1.90;;
9958;SDS011;5019;48.012;7.812;2023-04-25T04:49:21;2.37;;;2.17;;
9958;SDS011;5019;48.012;7.812;2023-04-25T04:51:47;1.73;;;1.60;;
9958;SDS011;5019;48.012;7.812;2023-04-25T04:54:14;3.47;;;2.13;;
9958;SDS011;5019;48.012;7.812;2023-04-25T04:56:40;3.80;;;2.30;;
9958;SDS011;5019;48.012;7.812;2023-04-25T04:59:06;1.80;;;1.70;;
9958;SDS011;5019;48.012;7.812;2023-04-25T05:01:33;3.37;;;2.77;;
9958;SDS011;5019;48.012;7.812;2023-04-25T05:04:01;4.97;;;2.00;;
9958;SDS011;5019;48.012;7.812;2023-04-25T05:06:28;3.37;;;1.83;;
9958;SDS011;5019;48.012;7.812;2023-04-25T05:08:54;2.53;;;2.33;;
9958;SDS011;5019;48.012;7.812;2023-04-25T05:11:21;1.90;;;1.60;;
9958;SDS011;5019;48.012;7.812;2023-04-25T05:13:47;4.53;;;2.17;;
9958;SDS011;5019;48.012;7.812;2023-04-25T05:16:13;1.93;;;1.73;;
9958;SDS011;5019;48.012;7.812;2023-04-25T05:18:39;7.60;;;3.03;;
9958;SDS011;5019;48.012;7.812;2023-04-25T05:21:05;3.67;;;2.77;;
9958;SDS011;5019;48.012;7.812;2023-04-25T05:23:32;3.13;;;2.00;;
9958;SDS011;5019;48.012;7.812;2023-04-25T05:25:58;2.50;;;2.30;;
9958;SDS011;5019;48.012;7.812;2023-04-25T05:28:24;3.67;;;2.50;;
9958;SDS011;5019;48.012;7.812;2023-04-25T05:30:50;3.40;;;2.40;;
9958;SDS011;5019;48.012;7.812;2023-04-25T05:33:17;2.57;;;1.83;;
9958;SDS011;5019;48.012;7.812;2023-04-25T05:35:43;4.30;;;2.63;;
9958;SDS011;5019;48.012;7.812;2023-04-25T05:38:09;5.40;;;2.27;;
9958;SDS011;5019;48.012;7.812;2023-04-25T05:40:35;1.93;;;1.50;;
9958;SDS011;5019;48.012;7.812;2023-04-25T05:43:01;1.70;;;1.60;;
9958;SDS011;5019;48.012;7.812;2023-04-25T05:45:27;4.03;;;1.77;;
9958;SDS011;5019;48.012;7.812;2023-04-25T05:47:53;1.63;;;1.53;;
9958;SDS011;5019;48.012;7.812;2023-04-25T05:50:19;1.20;;;1.10;;
9958;SDS011;5019;48.012;7.812;2023-04-25T05:52:45;1.23;;;1.20;;
9958;SDS011;5019;48.012;7.812;2023-04-25T05:55:11;2.97;;;1.00;;
9958;SDS011;5019;48.012;7.812;2023-04-25T05:57:38;1.83;;;1.10;;
9958;SDS011;5019;48.012;7.812;2023-04-25T06:00:06;1.03;;;0.87;;
9958;SDS011;5019;48.012;7.812;2023-04-25T06:02:34;1.97;;;1.00;;
9958;SDS011;5019;48.012;7.812;2023-04-25T06:05:00;3.03;;;1.97;;
9958;SDS011;5019;48.012;7.812;2023-04-25T06:07:28;1.20;;;1.10;;
9958;SDS011;5019;48.012;7.812;2023-04-25T06:09:57;0.70;;;0.70;;
9958;SDS011;5019;48.012;7.812;2023-04-25T06:12:25;1.87;;;0.90;;
9958;SDS011;5019;48.012;7.812;2023-04-25T06:14:51;0.80;;;0.80;;
9958;SDS011;5019;48.012;7.812;2023-04-25T06:17:17;2.90;;;1.37;;
9958;SDS011;5019;48.012;7.812;2023-04-25T06:19:43;0.87;;;0.87;;
9958;SDS011;5019;48.012;7.812;2023-04-25T06:22:08;1.13;;;1.03;;
9958;SDS011;5019;48.012;7.812;2023-04-25T06:24:35;1.40;;;1.00;;
9958;SDS011;5019;48.012;7.812;2023-04-25T06:27:01;1.20;;;1.10;;
9958;SDS011;5019;48.012;7.812;2023-04-25T06:29:27;1.20;;;1.10;;
9958;SDS011;5019;48.012;7.812;2023-04-25T06:31:53;1.13;;;1.00;;
9958;SDS011;5019;48.012;7.812;2023-04-25T06:34:19;1.03;;;1.03;;
9958;SDS011;5019;48.012;7.812;2023-04-25T06:36:45;0.80;;;0.80;;
9958;SDS011;5019;48.012;7.812;2023-04-25T06:39:11;1.07;;;0.90;;
9958;SDS011;5019;48.012;7.812;2023-04-25T06:41:37;1.10;;;1.10;;
9958;SDS011;5019;48.012;7.812;2023-04-25T06:44:03;1.37;;;1.20;;
9958;SDS011;5019;48.012;7.812;2023-04-25T06:46:29;1.00;;;1.00;;
9958;SDS011;5019;48.012;7.812;2023-04-25T06:48:55;2.13;;;1.60;;
9958;SDS011;5019;48.012;7.812;2023-04-25T06:51:21;1.67;;;1.43;;
9958;SDS011;5019;48.012;7.812;2023-04-25T06:53:49;1.90;;;1.80;;
9958;SDS011;5019;48.012;7.812;2023-04-25T06:56:15;2.70;;;1.37;;
9958;SDS011;5019;48.012;7.812;2023-04-25T06:58:41;0.80;;;0.80;;
9958;SDS011;5019;48.012;7.812;2023-04-25T07:01:07;4.10;;;1.30;;
9958;SDS011;5019;48.012;7.812;2023-04-25T07:03:33;1.37;;;1.27;;
9958;SDS011;5019;48.012;7.812;2023-04-25T07:05:59;3.17;;;1.13;;
9958;SDS011;5019;48.012;7.812;2023-04-25T07:08:25;1.70;;;1.60;;
9958;SDS011;5019;48.012;7.812;2023-04-25T07:10:51;1.57;;;1.47;;
9958;SDS011;5019;48.012;7.812;2023-04-25T07:13:17;1.23;;;1.13;;
9958;SDS011;5019;48.012;7.812;2023-04-25T07:15:43;1.20;;;1.10;;
9958;SDS011;5019;48.012;7.812;2023-04-25T07:18:09;1.17;;;1.17;;
9958;SDS011;5019;48.012;7.812;2023-04-25T07:20:35;1.53;;;1.43;;
9958;SDS011;5019;48.012;7.812;2023-04-25T07:23:01;3.47;;;2.40;;
9958;SDS011;5019;48.012;7.812;2023-04-25T07:25:27;2.47;;;2.27;;
9958;SDS011;5019;48.012;7.812;2023-04-25T07:27:53;6.53;;;2.00;;
9958;SDS011;5019;48.012;7.812;2023-04-25T07:30:19;1.70;;;1.60;;
9958;SDS011;5019;48.012;7.812;2023-04-25T07:32:45;3.20;;;1.73;;
9958;SDS011;5019;48.012;7.812;2023-04-25T07:35:11;1.90;;;1.80;;
9958;SDS011;5019;48.012;7.812;2023-04-25T07:37:37;2.13;;;1.73;;
9958;SDS011;5019;48.012;7.812;2023-04-25T07:40:03;1.47;;;1.37;;
9958;SDS011;5019;48.012;7.812;2023-04-25T07:42:30;2.43;;;2.33;;
9958;SDS011;5019;48.012;7.812;2023-04-25T07:44:56;4.03;;;2.20;;
9958;SDS011;5019;48.012;7.812;2023-04-25T07:47:22;2.20;;;1.83;;
9958;SDS011;5019;48.012;7.812;2023-04-25T07:49:48;2.60;;;1.70;;
9958;SDS011;5019;48.012;7.812;2023-04-25T07:52:14;4.40;;;1.57;;
9958;SDS011;5019;48.012;7.812;2023-04-25T07:54:40;3.63;;;1.93;;
9958;SDS011;5019;48.012;7.812;2023-04-25T07:57:06;2.03;;;1.83;;
9958;SDS011;5019;48.012;7.812;2023-04-25T07:59:32;1.50;;;1.40;;
9958;SDS011;5019;48.012;7.812;2023-04-25T08:01:58;1.53;;;1.43;;
9958;SDS011;5019;48.012;7.812;2023-04-25T08:04:24;1.40;;;1.20;;
9958;SDS011;5019;48.012;7.812;2023-04-25T08:06:51;2.90;;;1.87;;
9958;SDS011;5019;48.012;7.812;2023-04-25T08:09:18;1.57;;;1.50;;
9958;SDS011;5019;48.012;7.812;2023-04-25T08:11:44;2.50;;;1.80;;
9958;SDS011;5019;48.012;7.812;2023-04-25T08:14:11;1.57;;;1.47;;
9958;SDS011;5019;48.012;7.812;2023-04-25T08:16:37;1.50;;;1.40;;
9958;SDS011;5019;48.012;7.812;2023-04-25T08:19:03;2.83;;;1.63;;
9958;SDS011;5019;48.012;7.812;2023-04-25T08:21:29;1.70;;;1.60;;
9958;SDS011;5019;48.012;7.812;2023-04-25T08:23:56;5.23;;;2.27;;
9958;SDS011;5019;48.012;7.812;2023-04-25T08:26:23;1.97;;;1.70;;
9958;SDS011;5019;48.012;7.812;2023-04-25T08:28:49;3.70;;;2.07;;
9958;SDS011;5019;48.012;7.812;2023-04-25T08:31:15;1.43;;;1.33;;
9958;SDS011;5019;48.012;7.812;2023-04-25T08:33:41;2.40;;;1.40;;
9958;SDS011;5019;48.012;7.812;2023-04-25T08:36:07;4.17;;;1.90;;
9958;SDS011;5019;48.012;7.812;2023-04-25T08:38:33;2.73;;;1.70;;
9958;SDS011;5019;48.012;7.812;2023-04-25T08:41:00;1.93;;;1.80;;
9958;SDS011;5019;48.012;7.812;2023-04-25T08:43:26;2.13;;;2.00;;
9958;SDS011;5019;48.012;7.812;2023-04-25T08:45:54;2.27;;;1.90;;
9958;SDS011;5019;48.012;7.812;2023-04-25T08:48:24;3.37;;;1.97;;
9958;SDS011;5019;48.012;7.812;2023-04-25T08:50:53;3.23;;;2.07;;
9958;SDS011;5019;48.012;7.812;2023-04-25T08:53:21;2.07;;;1.70;;
9958;SDS011;5019;48.012;7.812;2023-04-25T08:55:47;3.00;;;2.40;;
9958;SDS011;5019;48.012;7.812;2023-04-25T08:58:14;2.27;;;1.80;;
9958;SDS011;5019;48.012;7.812;2023-04-25T09:00:40;3.90;;;2.17;;
9958;SDS011;5019;48.012;7.812;2023-04-25T09:03:06;2.10;;;1.90;;
9958;SDS011;5019;48.012;7.812;2023-04-25T09:05:33;1.83;;;1.70;;
9958;SDS011;5019;48.012;7.812;2023-04-25T09:08:00;1.67;;;1.57;;
9958;SDS011;5019;48.012;7.812;2023-04-25T09:10:27;2.87;;;2.20;;
9958;SDS011;5019;48.012;7.812;2023-04-25T09:15:28;1.30;;;1.20;;
9958;SDS011;5019;48.012;7.812;2023-04-25T09:17:55;1.40;;;1.30;;
9958;SDS011;5019;48.012;7.812;2023-04-25T09:20:21;2.80;;;1.90;;
9958;SDS011;5019;48.012;7.812;2023-04-25T09:22:47;1.90;;;1.80;;
9958;SDS011;5019;48.012;7.812;2023-04-25T09:25:13;1.83;;;1.73;;
9958;SDS011;5019;48.012;7.812;2023-04-25T09:27:52;2.27;;;1.50;;
9958;SDS011;5019;48.012;7.812;2023-04-25T09:30:28;2.37;;;1.57;;
9958;SDS011;5019;48.012;7.812;2023-04-25T09:32:56;4.07;;;3.17;;
9958;SDS011;5019;48.012;7.812;2023-04-25T09:35:25;5.50;;;2.77;;
9958;SDS011;5019;48.012;7.812;2023-04-25T09:37:51;2.27;;;1.80;;
9958;SDS011;5019;48.012;7.812;2023-04-25T09:40:17;2.00;;;1.83;;
9958;SDS011;5019;48.012;7.812;2023-04-25T09:42:43;2.70;;;1.50;;
9958;SDS011;5019;48.012;7.812;2023-04-25T09:45:09;1.77;;;1.63;;
9958;SDS011;5019;48.012;7.812;2023-04-25T09:47:40;1.73;;;1.13;;
9958;SDS011;5019;48.012;7.812;2023-04-25T09:50:13;1.73;;;1.47;;
9958;SDS011;5019;48.012;7.812;2023-04-25T09:52:40;1.63;;;1.33;;
9958;SDS011;5019;48.012;7.812;2023-04-25T09:55:06;3.20;;;1.57;;
9958;SDS011;5019;48.012;7.812;2023-04-25T09:57:32;2.17;;;1.00;;
9958;SDS011;5019;48.012;7.812;2023-04-25T09:59:59;1.40;;;1.30;;
9958;SDS011;5019;48.012;7.812;2023-04-25T10:02:26;1.60;;;1.50;;
9958;SDS011;5019;48.012;7.812;2023-04-25T10:04:53;1.30;;;1.20;;
9958;SDS011;5019;48.012;7.812;2023-04-25T10:07:22;1.70;;;1.60;;
9958;SDS011;5019;48.012;7.812;2023-04-25T10:09:52;1.63;;;1.53;;
9958;SDS011;5019;48.012;7.812;2023-04-25T10:12:20;2.20;;;1.47;;
9958;SDS011;5019;48.012;7.812;2023-04-25T10:14:47;1.30;;;1.20;;
9958;SDS011;5019;48.012;7.812;2023-04-25T10:17:13;1.70;;;1.53;;
9958;SDS011;5019;48.012;7.812;2023-04-25T10:19:39;1.53;;;1.23;;
9958;SDS011;5019;48.012;7.812;2023-04-25T10:22:07;3.23;;;1.50;;
9958;SDS011;5019;48.012;7.812;2023-04-25T10:24:34;1.40;;;1.30;;
9958;SDS011;5019;48.012;7.812;2023-04-25T10:27:02;1.20;;;1.10;;
9958;SDS011;5019;48.012;7.812;2023-04-25T10:29:28;1.30;;;1.20;;
9958;SDS011;5019;48.012;7.812;2023-04-25T10:31:54;1.23;;;1.13;;
9958;SDS011;5019;48.012;7.812;2023-04-25T10:34:23;2.17;;;1.50;;
9958;SDS011;5019;48.012;7.812;2023-04-25T10:36:51;3.50;;;1.83;;
9958;SDS011;5019;48.012;7.812;2023-04-25T10:39:23;1.73;;;1.40;;
9958;SDS011;5019;48.012;7.812;2023-04-25T10:41:53;1.60;;;1.50;;
9958;SDS011;5019;48.012;7.812;2023-04-25T10:44:20;1.90;;;1.70;;
9958;SDS011;5019;48.012;7.812;2023-04-25T10:46:46;1.83;;;1.63;;
9958;SDS011;5019;48.012;7.812;2023-04-25T10:49:29;1.20;;;1.10;;
9958;SDS011;5019;48.012;7.812;2023-04-25T10:52:15;1.50;;;1.40;;
9958;SDS011;5019;48.012;7.812;2023-04-25T10:54:42;2.40;;;1.60;;
9958;SDS011;5019;48.012;7.812;2023-04-25T10:57:25;1.70;;;1.40;;
9958;SDS011;5019;48.012;7.812;2023-04-25T10:59:51;1.43;;;1.33;;
9958;SDS011;5019;48.012;7.812;2023-04-25T11:02:17;1.77;;;1.60;;
9958;SDS011;5019;48.012;7.812;2023-04-25T11:04:43;7.70;;;2.10;;
9958;SDS011;5019;48.012;7.812;2023-04-25T11:09:55;1.30;;;1.20;;
9958;SDS011;5019;48.012;7.812;2023-04-25T11:12:21;2.00;;;1.80;;
9958;SDS011;5019;48.012;7.812;2023-04-25T11:14:50;3.83;;;2.20;;
9958;SDS011;5019;48.012;7.812;2023-04-25T11:17:16;3.17;;;1.53;;
9958;SDS011;5019;48.012;7.812;2023-04-25T11:19:42;2.13;;;1.50;;
9958;SDS011;5019;48.012;7.812;2023-04-25T11:22:09;2.00;;;1.60;;
9958;SDS011;5019;48.012;7.812;2023-04-25T11:24:36;1.73;;;1.63;;
9958;SDS011;5019;48.012;7.812;2023-04-25T11:27:02;2.20;;;2.00;;
9958;SDS011;5019;48.012;7.812;2023-04-25T11:29:29;1.40;;;1.30;;
9958;SDS011;5019;48.012;7.812;2023-04-25T11:31:55;1.60;;;1.50;;
9958;SDS011;5019;48.012;7.812;2023-04-25T11:34:26;1.30;;;1.20;;
9958;SDS011;5019;48.012;7.812;2023-04-25T11:36:53;1.57;;;1.27;;
9958;SDS011;5019;48.012;7.812;2023-04-25T11:39:19;1.20;;;1.10;;
9958;SDS011;5019;48.012;7.812;2023-04-25T11:41:46;2.50;;;1.33;;
9958;SDS011;5019;48.012;7.812;2023-04-25T11:44:12;2.00;;;1.30;;
9958;SDS011;5019;48.012;7.812;2023-04-25T11:46:40;2.60;;;1.87;;
9958;SDS011;5019;48.012;7.812;2023-04-25T11:49:07;2.33;;;2.10;;
9958;SDS011;5019;48.012;7.812;2023-04-25T11:54:05;5.80;;;1.30;;
9958;SDS011;5019;48.012;7.812;2023-04-25T11:56:32;1.43;;;1.33;;
9958;SDS011;5019;48.012;7.812;2023-04-25T11:58:58;3.00;;;1.93;;
9958;SDS011;5019;48.012;7.812;2023-04-25T12:01:32;1.80;;;1.60;;
9958;SDS011;5019;48.012;7.812;2023-04-25T12:04:09;1.87;;;1.57;;
9958;SDS011;5019;48.012;7.812;2023-04-25T12:06:38;1.53;;;1.43;;
9958;SDS011;5019;48.012;7.812;2023-04-25T12:09:06;1.50;;;1.40;;
9958;SDS011;5019;48.012;7.812;2023-04-25T12:11:40;1.70;;;1.60;;
9958;SDS011;5019;48.012;7.812;2023-04-25T12:14:06;1.57;;;1.47;;
9958;SDS011;5019;48.012;7.812;2023-04-25T12:16:42;1.83;;;1.30;;
9958;SDS011;5019;48.012;7.812;2023-04-25T12:19:08;1.97;;;1.87;;
9958;SDS011;5019;48.012;7.812;2023-04-25T12:21:34;1.60;;;1.50;;
9958;SDS011;5019;48.012;7.812;2023-04-25T12:24:10;1.33;;;1.23;;
9958;SDS011;5019;48.012;7.812;2023-04-25T12:29:23;1.17;;;1.07;;
9958;SDS011;5019;48.012;7.812;2023-04-25T12:31:50;4.27;;;1.23;;
9958;SDS011;5019;48.012;7.812;2023-04-25T12:34:16;1.40;;;1.30;;
9958;SDS011;5019;48.012;7.812;2023-04-25T12:36:42;1.33;;;1.23;;
9958;SDS011;5019;48.012;7.812;2023-04-25T12:39:08;1.40;;;1.20;;
9958;SDS011;5019;48.012;7.812;2023-04-25T12:41:39;1.10;;;1.00;;
9958;SDS011;5019;48.012;7.812;2023-04-25T12:44:05;2.50;;;1.30;;
9958;SDS011;5019;48.012;7.812;2023-04-25T12:46:31;1.37;;;1.20;;
9958;SDS011;5019;48.012;7.812;2023-04-25T12:48:57;1.30;;;1.20;;
9958;SDS011;5019;48.012;7.812;2023-04-25T12:51:23;1.40;;;1.00;;
9958;SDS011;5019;48.012;7.812;2023-04-25T12:53:51;2.07;;;1.37;;
9958;SDS011;5019;48.012;7.812;2023-04-25T12:56:17;1.43;;;1.20;;
9958;SDS011;5019;48.012;7.812;2023-04-25T12:58:43;1.33;;;1.23;;
9958;SDS011;5019;48.012;7.812;2023-04-25T13:01:09;3.40;;;1.40;;
9958;SDS011;5019;48.012;7.812;2023-04-25T13:03:37;1.50;;;1.40;;
9958;SDS011;5019;48.012;7.812;2023-04-25T13:06:03;1.57;;;1.10;;
9958;SDS011;5019;48.012;7.812;2023-04-25T13:08:29;1.50;;;1.30;;
9958;SDS011;5019;48.012;7.812;2023-04-25T13:10:55;1.43;;;1.33;;
9958;SDS011;5019;48.012;7.812;2023-04-25T13:13:21;2.70;;;1.40;;
9958;SDS011;5019;48.012;7.812;2023-04-25T13:15:47;1.53;;;1.43;;
9958;SDS011;5019;48.012;7.812;2023-04-25T13:18:14;2.17;;;1.47;;
9958;SDS011;5019;48.012;7.812;2023-04-25T13:20:41;0.90;;;0.90;;
9958;SDS011;5019;48.012;7.812;2023-04-25T13:23:07;0.83;;;0.80;;
9958;SDS011;5019;48.012;7.812;2023-04-25T13:25:33;1.40;;;1.10;;
9958;SDS011;5019;48.012;7.812;2023-04-25T13:27:59;1.10;;;1.00;;
9958;SDS011;5019;48.012;7.812;2023-04-25T13:30:25;1.13;;;0.80;;
9958;SDS011;5019;48.012;7.812;2023-04-25T13:32:51;1.70;;;0.97;;
9958;SDS011;5019;48.012;7.812;2023-04-25T13:35:17;2.37;;;0.97;;
9958;SDS011;5019;48.012;7.812;2023-04-25T13:37:43;1.80;;;0.83;;
9958;SDS011;5019;48.012;7.812;2023-04-25T13:40:10;1.90;;;1.03;;
9958;SDS011;5019;48.012;7.812;2023-04-25T13:42:37;2.03;;;1.00;;
9958;SDS011;5019;48.012;7.812;2023-04-25T13:45:03;0.90;;;0.90;;
9958;SDS011;5019;48.012;7.812;2023-04-25T13:47:29;1.57;;;0.80;;
9958;SDS011;5019;48.012;7.812;2023-04-25T13:49:56;1.17;;;1.07;;
9958;SDS011;5019;48.012;7.812;2023-04-25T13:52:22;1.03;;;0.93;;
9958;SDS011;5019;48.012;7.812;2023-04-25T13:54:52;0.97;;;0.87;;
9958;SDS011;5019;48.012;7.812;2023-04-25T13:57:18;4.63;;;0.90;;
9958;SDS011;5019;48.012;7.812;2023-04-25T13:59:44;0.80;;;0.80;;
9958;SDS011;5019;48.012;7.812;2023-04-25T14:02:11;1.00;;;1.00;;
9958;SDS011;5019;48.012;7.812;2023-04-25T14:04:37;1.17;;;0.80;;
9958;SDS011;5019;48.012;7.812;2023-04-25T14:07:03;0.60;;;0.60;;
9958;SDS011;5019;48.012;7.812;2023-04-25T14:09:30;2.17;;;1.17;;
9958;SDS011;5019;48.012;7.812;2023-04-25T14:11:56;0.67;;;0.67;;
9958;SDS011;5019;48.012;7.812;2023-04-25T14:14:22;1.20;;;0.80;;
9958;SDS011;5019;48.012;7.812;2023-04-25T14:16:48;1.10;;;1.00;;
9958;SDS011;5019;48.012;7.812;2023-04-25T14:19:15;0.70;;;0.70;;
9958;SDS011;5019;48.012;7.812;2023-04-25T14:21:41;0.70;;;0.70;;
9958;SDS011;5019;48.012;7.812;2023-04-25T14:24:08;0.87;;;0.87;;
9958;SDS011;5019;48.012;7.812;2023-04-25T14:26:34;0.80;;;0.77;;
9958;SDS011;5019;48.012;7.812;2023-04-25T14:29:01;1.13;;;1.00;;
9958;SDS011;5019;48.012;7.812;2023-04-25T14:31:27;0.80;;;0.80;;
9958;SDS011;5019;48.012;7.812;2023-04-25T14:33:53;0.73;;;0.73;;
9958;SDS011;5019;48.012;7.812;2023-04-25T14:36:19;1.10;;;0.80;;
9958;SDS011;5019;48.012;7.812;2023-04-25T14:38:45;0.63;;;0.63;;
9958;SDS011;5019;48.012;7.812;2023-04-25T14:41:11;0.80;;;0.80;;
9958;SDS011;5019;48.012;7.812;2023-04-25T14:43:37;1.23;;;0.87;;
9958;SDS011;5019;48.012;7.812;2023-04-25T14:46:05;1.20;;;0.97;;
9958;SDS011;5019;48.012;7.812;2023-04-25T14:48:32;0.73;;;0.73;;
9958;SDS011;5019;48.012;7.812;2023-04-25T14:50:58;1.67;;;0.80;;
9958;SDS011;5019;48.012;7.812;2023-04-25T14:53:25;2.43;;;1.03;;
9958;SDS011;5019;48.012;7.812;2023-04-25T14:55:51;1.33;;;1.20;;
9958;SDS011;5019;48.012;7.812;2023-04-25T14:58:17;0.87;;;0.87;;
9958;SDS011;5019;48.012;7.812;2023-04-25T15:00:43;1.37;;;1.27;;
9958;SDS011;5019;48.012;7.812;2023-04-25T15:03:09;1.30;;;1.20;;
9958;SDS011;5019;48.012;7.812;2023-04-25T15:05:37;2.03;;;1.40;;
9958;SDS011;5019;48.012;7.812;2023-04-25T15:08:03;1.83;;;1.50;;
9958;SDS011;5019;48.012;7.812;2023-04-25T15:10:30;1.37;;;1.27;;
9958;SDS011;5019;48.012;7.812;2023-04-25T15:12:55;0.90;;;0.90;;
9958;SDS011;5019;48.012;7.812;2023-04-25T15:15:21;1.63;;;1.30;;
9958;SDS011;5019;48.012;7.812;2023-04-25T15:17:48;1.37;;;1.30;;
9958;SDS011;5019;48.012;7.812;2023-04-25T15:20:15;1.10;;;1.00;;
9958;SDS011;5019;48.012;7.812;2023-04-25T15:22:42;2.83;;;1.20;;